Time;durP1;ratioP1;P1;durP2;ratioP2;P2;SDS_P1;SDS_P2;PMS_P1;PMS_P2;Temp;Humidity;BMP_temperature;BMP_pressure;BME280_temperature;BME280_humidity;BME280_pressure;Samples;Min_cycle;Max_cycle;Signal;HPM_P1;HPM_P2
2021/09/11 00:02:07;;;;;;;7.15;6.53;;;;;;;19.08;97.48;100825.09;4961698;28;20106;-84
2021/09/11 00:04:36;;;;;;;7.97;7.00;;;;;;;19.08;97.37;100825.09;4981692;28;20043;-85
2021/09/11 00:07:09;;;;;;;6.00;5.50;;;;;;;19.12;97.73;100831.97;4979192;28;20051;-85
2021/09/11 00:09:35;;;;;;;7.28;6.57;;;;;;;19.16;97.88;100826.50;4961949;28;20053;-85
2021/09/11 00:12:02;;;;;;;9.43;6.32;;;;;;;19.20;97.55;100826.34;4945140;28;20057;-86
2021/09/11 00:14:29;;;;;;;9.43;7.15;;;;;;;19.22;97.26;100827.16;4963429;28;20563;-86
2021/09/11 00:16:55;;;;;;;7.00;6.38;;;;;;;19.21;97.45;100814.81;4965450;28;20059;-84
2021/09/11 00:19:22;;;;;;;9.02;7.80;;;;;;;19.18;97.96;100811.34;4989617;28;20066;-86
2021/09/11 00:21:48;;;;;;;8.20;7.47;;;;;;;19.15;97.95;100822.09;4957356;28;20489;-85
2021/09/11 00:24:15;;;;;;;7.35;6.25;;;;;;;19.13;97.77;100817.78;4966870;28;20042;-84
2021/09/11 00:26:42;;;;;;;8.32;7.53;;;;;;;19.14;97.68;100820.38;4991820;28;20407;-84
2021/09/11 00:29:08;;;;;;;7.32;6.60;;;;;;;19.12;97.82;100813.41;4958447;28;20097;-84
2021/09/11 00:31:35;;;;;;;10.30;8.30;;;;;;;19.09;97.85;100821.50;4961626;28;20042;-85
2021/09/11 00:34:02;;;;;;;8.93;7.88;;;;;;;19.07;98.07;100815.41;4961267;28;20122;-85
2021/09/11 00:36:29;;;;;;;9.35;7.47;;;;;;;19.05;97.89;100819.91;4945474;28;20101;-84
2021/09/11 00:38:59;;;;;;;7.25;6.40;;;;;;;19.01;98.07;100817.38;4962994;28;20122;-84
2021/09/11 00:41:26;;;;;;;6.50;6.00;;;;;;;18.96;98.31;100814.03;4977747;28;20077;-84
2021/09/11 00:43:53;;;;;;;5.80;5.25;;;;;;;18.87;98.65;100806.44;4944001;28;20455;-85
2021/09/11 00:46:20;;;;;;;6.60;6.05;;;;;;;18.78;98.87;100810.31;4959842;28;20081;-85
2021/09/11 00:48:46;;;;;;;14.20;7.00;;;;;;;18.73;99.24;100809.66;4960031;28;20043;-83
2021/09/11 00:51:14;;;;;;;7.45;6.80;;;;;;;18.68;99.42;100816.91;4976762;28;20131;-84
2021/09/11 00:53:48;;;;;;;9.60;8.18;;;;;;;18.66;99.67;100808.19;4975170;28;20105;-85
2021/09/11 00:56:15;;;;;;;10.27;8.23;;;;;;;18.64;100.00;100815.31;4960455;28;20121;-84
2021/09/11 00:58:42;;;;;;;9.05;8.15;;;;;;;18.63;99.85;100809.19;4959398;28;20057;-84
2021/09/11 01:01:08;;;;;;;7.32;6.63;;;;;;;18.62;100.00;100810.09;4958864;28;20054;-84
2021/09/11 01:03:35;;;;;;;12.05;7.38;;;;;;;18.60;100.00;100803.13;4976073;28;20053;-85
2021/09/11 01:06:02;;;;;;;9.05;6.80;;;;;;;18.58;100.00;100807.63;4959359;28;20050;-84
2021/09/11 01:08:29;;;;;;;7.80;7.10;;;;;;;18.56;99.84;100805.03;4959585;28;20073;-84
2021/09/11 01:10:55;;;;;;;8.60;6.65;;;;;;;18.54;99.77;100808.66;4960442;28;20055;-85
2021/09/11 01:13:22;;;;;;;6.95;6.35;;;;;;;18.50;99.96;100800.00;4958943;28;20043;-85
2021/09/11 01:15:48;;;;;;;7.28;6.60;;;;;;;18.45;100.00;100805.47;4959050;28;20055;-85
2021/09/11 01:18:15;;;;;;;6.40;5.85;;;;;;;18.39;100.00;100802.19;4943043;28;20489;-84
2021/09/11 01:20:42;;;;;;;7.75;6.30;;;;;;;18.31;100.00;100806.00;4942982;28;20154;-85
2021/09/11 01:23:09;;;;;;;7.05;6.38;;;;;;;18.23;100.00;100810.72;4960197;28;20078;-85
2021/09/11 01:25:38;;;;;;;6.95;5.95;;;;;;;18.18;100.00;100810.91;4943887;28;20046;-86
2021/09/11 01:28:05;;;;;;;7.75;6.88;;;;;;;18.16;100.00;100815.41;4959828;28;20509;-85
2021/09/11 01:30:32;;;;;;;8.57;7.07;;;;;;;18.11;100.00;100814.72;4960532;28;20125;-83
2021/09/11 01:32:58;;;;;;;7.53;6.70;;;;;;;18.10;100.00;100815.63;4962684;28;20077;-84
2021/09/11 01:35:25;;;;;;;6.40;5.80;;;;;;;18.07;100.00;100807.81;4943661;28;20050;-84
2021/09/11 01:37:52;;;;;;;7.03;5.78;;;;;;;18.06;100.00;100811.38;4958820;28;20075;-84
2021/09/11 01:40:25;;;;;;;5.70;5.20;;;;;;;18.02;100.00;100823.88;4943701;28;20149;-84
2021/09/11 01:45:48;;;;;;;9.73;5.75;;;;;;;17.94;100.00;100815.34;4916038;28;20050;-84
2021/09/11 01:51:04;;;;;;;7.57;6.70;;;;;;;17.85;100.00;100821.81;4960682;28;20160;-84
2021/09/11 01:53:30;;;;;;;6.95;6.25;;;;;;;17.84;100.00;100819.22;4958021;28;20058;-84
2021/09/11 01:55:59;;;;;;;7.70;7.00;;;;;;;17.82;100.00;100810.47;4961546;28;20122;-85
2021/09/11 01:58:35;;;;;;;7.10;6.40;;;;;;;17.79;100.00;100821.19;4975101;28;20050;-84
2021/09/11 02:01:02;;;;;;;9.88;7.20;;;;;;;17.76;100.00;100818.66;4958314;28;20047;-84
2021/09/11 02:03:28;;;;;;;8.48;7.60;;;;;;;17.74;100.00;100826.63;4958441;28;20125;-85
2021/09/11 02:05:56;;;;;;;8.68;7.72;;;;;;;17.74;100.00;100831.91;4942546;28;20053;-85
2021/09/11 02:08:22;;;;;;;10.35;8.80;;;;;;;17.71;100.00;100828.53;4942559;28;20043;-85
2021/09/11 02:10:49;;;;;;;9.07;8.15;;;;;;;17.66;100.00;100832.22;4958932;28;20082;-84
2021/09/11 02:13:15;;;;;;;10.20;8.43;;;;;;;17.63;100.00;100832.31;4958369;28;20101;-84
2021/09/11 02:15:42;;;;;;;10.07;8.70;;;;;;;17.63;100.00;100828.81;4958576;28;20047;-84
2021/09/11 02:18:08;;;;;;;10.52;8.60;;;;;;;17.61;100.00;100833.28;4942226;28;20051;-84
2021/09/11 02:20:35;;;;;;;8.18;7.38;;;;;;;17.59;100.00;100837.78;4958687;28;20050;-86
2021/09/11 02:23:02;;;;;;;11.00;9.48;;;;;;;17.52;100.00;100832.69;4958089;28;20437;-84
2021/09/11 02:25:28;;;;;;;13.70;10.88;;;;;;;17.50;100.00;100831.88;4958400;28;20055;-84
2021/09/11 02:27:55;;;;;;;12.23;11.02;;;;;;;17.49;100.00;100832.78;4958871;28;20097;-83
2021/09/11 02:30:22;;;;;;;13.32;10.73;;;;;;;17.47;100.00;100828.47;4957886;28;20051;-85
2021/09/11 02:32:48;;;;;;;12.18;10.18;;;;;;;17.46;100.00;100824.97;4974511;28;20051;-85
2021/09/11 02:35:15;;;;;;;14.20;12.27;;;;;;;17.47;100.00;100833.75;4957820;28;20050;-85
2021/09/11 02:37:41;;;;;;;10.93;9.82;;;;;;;17.48;100.00;100822.25;4959077;28;20398;-85
2021/09/11 02:40:09;;;;;;;13.55;10.52;;;;;;;17.48;100.00;100827.56;4958920;28;20520;-84
2021/09/11 02:42:35;;;;;;;12.48;11.00;;;;;;;17.48;100.00;100820.50;4962516;28;20074;-85
2021/09/11 02:45:02;;;;;;;15.13;12.60;;;;;;;17.46;100.00;100822.31;4943518;28;20529;-83
2021/09/11 02:47:28;;;;;;;17.30;12.27;;;;;;;17.45;100.00;100827.69;4976433;28;20505;-83
2021/09/11 02:49:55;;;;;;;14.32;10.55;;;;;;;17.39;100.00;100822.59;4958331;28;20058;-84
2021/09/11 02:52:21;;;;;;;14.70;12.02;;;;;;;17.32;100.00;100820.16;4958381;28;20047;-83
2021/09/11 02:54:48;;;;;;;14.00;11.23;;;;;;;17.27;100.00;100823.88;4957969;28;20049;-84
2021/09/11 02:57:14;;;;;;;14.80;11.20;;;;;;;17.21;100.00;100822.31;4958120;28;20138;-84
2021/09/11 02:59:41;;;;;;;12.60;10.40;;;;;;;17.15;100.00;100818.06;4975278;28;20055;-84
2021/09/11 03:02:07;;;;;;;16.55;11.48;;;;;;;17.10;100.00;100825.31;4957115;28;20047;-83
2021/09/11 03:04:34;;;;;;;11.73;10.48;;;;;;;17.07;100.00;100828.06;4973695;28;20512;-84
2021/09/11 03:07:01;;;;;;;17.50;11.75;;;;;;;17.03;100.00;100823.78;4958075;28;20051;-84
2021/09/11 03:09:27;;;;;;;16.58;11.18;;;;;;;16.99;100.00;100817.72;4958040;28;20367;-84
2021/09/11 03:11:57;;;;;;;12.88;10.85;;;;;;;16.95;100.00;100813.47;4957957;28;20382;-83
2021/09/11 03:14:23;;;;;;;14.18;11.32;;;;;;;16.91;100.00;100819.78;4975090;28;20053;-84
2021/09/11 03:16:50;;;;;;;12.15;10.68;;;;;;;16.87;100.00;100807.53;4958704;28;20061;-84
2021/09/11 03:19:16;;;;;;;13.18;11.80;;;;;;;16.84;100.00;100810.25;4967893;28;20073;-83
2021/09/11 03:21:43;;;;;;;14.35;11.45;;;;;;;16.83;100.00;100806.78;4966642;28;20457;-84
2021/09/11 03:24:09;;;;;;;13.57;11.48;;;;;;;16.83;100.00;100808.53;4960721;28;20049;-82
2021/09/11 03:26:36;;;;;;;15.60;12.60;;;;;;;16.80;100.00;100806.84;4961359;28;20126;-84
2021/09/11 03:29:08;;;;;;;12.43;10.93;;;;;;;16.79;100.00;100809.56;4964278;28;20042;-85
2021/09/11 03:31:35;;;;;;;11.75;10.00;;;;;;;16.80;100.00;100809.50;4966919;28;20043;-82
2021/09/11 03:34:02;;;;;;;13.55;12.10;;;;;;;16.78;100.00;100807.81;4974880;28;20051;-84
2021/09/11 03:36:29;;;;;;;16.10;13.10;;;;;;;16.76;100.00;100807.88;4987569;28;20125;-84
2021/09/11 03:38:55;;;;;;;13.27;11.27;;;;;;;16.74;100.00;100804.44;4945524;28;20109;-84
2021/09/11 03:41:22;;;;;;;14.23;11.20;;;;;;;16.72;100.00;100808.88;4945868;28;20490;-84
2021/09/11 03:43:51;;;;;;;11.40;10.10;;;;;;;16.70;100.00;100811.59;4977658;28;20039;-85
2021/09/11 03:46:18;;;;;;;12.68;11.43;;;;;;;16.70;100.00;100818.66;4953350;28;20050;-84
2021/09/11 03:48:45;;;;;;;17.13;14.60;;;;;;;16.68;100.00;100807.25;4960847;28;20125;-83
2021/09/11 03:51:11;;;;;;;12.48;10.68;;;;;;;16.68;100.00;100821.31;4961460;28;20047;-84
2021/09/11 03:53:38;;;;;;;12.80;11.50;;;;;;;16.66;100.00;100819.66;4978547;28;20050;-83
2021/09/11 03:56:05;;;;;;;13.55;11.80;;;;;;;16.64;100.00;100822.34;4961029;28;20043;-83
2021/09/11 03:58:33;;;;;;;14.60;12.13;;;;;;;16.64;100.00;100824.13;4961768;28;20051;-84
2021/09/11 04:01:01;;;;;;;16.88;13.95;;;;;;;16.65;100.00;100821.44;4961101;28;20046;-83
2021/09/11 04:03:29;;;;;;;19.63;15.70;;;;;;;16.63;100.00;100827.69;4961189;28;20122;-84
2021/09/11 04:05:56;;;;;;;21.60;17.70;;;;;;;16.61;100.00;100829.50;4961048;28;20047;-84
2021/09/11 04:08:22;;;;;;;16.55;14.18;;;;;;;16.58;100.00;100822.53;4944799;28;20071;-83
2021/09/11 04:10:49;;;;;;;14.98;12.60;;;;;;;16.57;100.00;100828.75;4961468;28;20145;-84
2021/09/11 04:13:16;;;;;;;22.08;16.90;;;;;;;16.54;100.00;100824.44;4960716;28;20047;-84
2021/09/11 04:15:48;;;;;;;20.42;15.98;;;;;;;16.53;100.00;100827.09;4959037;28;20078;-85
2021/09/11 04:18:15;;;;;;;18.63;15.57;;;;;;;16.52;100.00;100830.69;4961254;28;20438;-84
2021/09/11 04:20:41;;;;;;;18.60;15.15;;;;;;;16.53;100.00;100827.97;4945256;28;20057;-84
2021/09/11 04:23:08;;;;;;;23.92;15.13;;;;;;;16.52;100.00;100830.69;4960449;28;20043;-84
2021/09/11 04:25:34;;;;;;;19.27;13.68;;;;;;;16.52;100.00;100823.59;4960611;28;20061;-84
2021/09/11 04:28:07;;;;;;;19.23;15.60;;;;;;;16.53;100.00;100824.44;4976741;28;20047;-84
2021/09/11 04:30:34;;;;;;;25.37;19.40;;;;;;;16.58;100.00;100825.16;4944573;28;20050;-84
2021/09/11 04:33:00;;;;;;;22.23;16.48;;;;;;;16.63;100.00;100825.91;4976336;28;20059;-84
2021/09/11 04:35:27;;;;;;;21.83;17.13;;;;;;;16.67;100.00;100821.38;4960596;28;20043;-84
2021/09/11 04:37:53;;;;;;;21.52;15.80;;;;;;;16.73;100.00;100823.84;4945092;28;20051;-84
2021/09/11 04:40:20;;;;;;;27.73;18.65;;;;;;;16.76;100.00;100821.09;4944461;28;20054;-83
2021/09/11 04:42:49;;;;;;;25.40;18.58;;;;;;;16.81;100.00;100831.53;4979489;28;20042;-84
2021/09/11 04:45:16;;;;;;;24.48;17.88;;;;;;;16.84;100.00;100820.84;4960503;28;20133;-83
2021/09/11 04:47:43;;;;;;;27.50;19.25;;;;;;;16.87;100.00;100824.25;4960919;28;20138;-84
2021/09/11 04:50:09;;;;;;;22.05;16.05;;;;;;;16.91;100.00;100826.81;4959446;28;20059;-83
2021/09/11 04:52:36;;;;;;;26.35;19.23;;;;;;;16.95;100.00;100828.47;4959439;28;20039;-83
2021/09/11 04:55:03;;;;;;;25.05;17.80;;;;;;;16.99;100.00;100827.47;4943931;28;20465;-84
2021/09/11 04:57:30;;;;;;;24.75;19.05;;;;;;;17.06;100.00;100828.97;4959798;28;20057;-84
2021/09/11 04:59:56;;;;;;;24.52;17.80;;;;;;;17.11;100.00;100834.13;4929401;28;20050;-84
2021/09/11 05:02:23;;;;;;;24.50;17.45;;;;;;;17.13;100.00;100827.88;4945734;28;20055;-84
2021/09/11 05:04:49;;;;;;;22.70;17.02;;;;;;;17.16;100.00;100830.41;4962823;28;20138;-83
2021/09/11 05:07:16;;;;;;;26.65;18.05;;;;;;;17.19;100.00;100834.72;4960178;28;20098;-84
2021/09/11 05:09:43;;;;;;;25.70;17.95;;;;;;;17.20;100.00;100837.31;4975433;28;20042;-84
2021/09/11 05:12:09;;;;;;;21.23;16.90;;;;;;;17.23;100.00;100840.78;4944689;28;20070;-84
2021/09/11 05:14:50;;;;;;;23.42;17.70;;;;;;;17.27;100.00;100834.47;4961301;28;20042;-84
2021/09/11 05:17:17;;;;;;;24.20;15.85;;;;;;;17.28;100.00;100838.84;4975421;28;20474;-84
2021/09/11 05:19:44;;;;;;;22.27;15.48;;;;;;;17.32;100.00;100837.81;4959763;28;20081;-85
2021/09/11 05:22:10;;;;;;;19.60;15.10;;;;;;;17.33;100.00;100835.09;4952415;28;20053;-83
2021/09/11 05:24:37;;;;;;;20.27;15.43;;;;;;;17.37;100.00;100835.88;4959296;28;20489;-83
2021/09/11 05:27:12;;;;;;;17.20;13.70;;;;;;;17.39;100.00;100831.41;4943832;28;20106;-84
2021/09/11 05:29:41;;;;;;;19.08;15.43;;;;;;;17.43;100.00;100833.03;4944094;28;20145;-83
2021/09/11 05:32:08;;;;;;;21.30;15.32;;;;;;;17.48;100.00;100835.50;4958356;28;20039;-84
2021/09/11 05:34:34;;;;;;;18.95;14.52;;;;;;;17.54;100.00;100840.59;4959358;28;20522;-86
2021/09/11 05:37:02;;;;;;;18.08;14.23;;;;;;;17.62;100.00;100842.97;4958584;28;20474;-85
2021/09/11 05:39:28;;;;;;;15.85;13.18;;;;;;;17.68;100.00;100840.09;4943025;28;20496;-83
2021/09/11 05:41:55;;;;;;;15.85;12.05;;;;;;;17.75;100.00;100844.25;4942139;28;20043;-84
2021/09/11 05:44:22;;;;;;;16.90;13.07;;;;;;;17.81;100.00;100849.31;4959042;28;20050;-83
2021/09/11 05:46:49;;;;;;;15.32;12.95;;;;;;;17.89;100.00;100848.19;4974985;28;20093;-83
2021/09/11 05:49:15;;;;;;;10.93;9.80;;;;;;;17.97;100.00;100851.47;4957913;28;20058;-83
2021/09/11 05:51:42;;;;;;;12.23;10.93;;;;;;;18.03;100.00;100853.88;4975026;28;20492;-84
2021/09/11 05:54:08;;;;;;;13.57;10.77;;;;;;;18.11;100.00;100856.25;4958222;28;20120;-83
2021/09/11 05:56:35;;;;;;;11.63;10.27;;;;;;;18.18;100.00;100848.00;4958308;28;20039;-84
2021/09/11 05:59:01;;;;;;;10.48;9.32;;;;;;;18.26;100.00;100846.84;4958844;28;20046;-83
2021/09/11 06:01:28;;;;;;;14.23;11.60;;;;;;;18.30;100.00;100856.41;4957598;28;20050;-83
2021/09/11 06:03:54;;;;;;;12.43;10.35;;;;;;;18.34;100.00;100861.53;4942489;28;20066;-84
2021/09/11 06:06:21;;;;;;;9.32;8.27;;;;;;;18.40;100.00;100865.72;4958472;28;20134;-84
2021/09/11 06:08:47;;;;;;;10.63;9.23;;;;;;;18.45;100.00;100869.06;4958473;28;20046;-84
2021/09/11 06:11:14;;;;;;;12.27;10.10;;;;;;;18.50;99.84;100866.25;4976067;28;20043;-83
2021/09/11 06:13:40;;;;;;;11.77;10.50;;;;;;;18.53;99.62;100868.78;4976397;28;20105;-83
2021/09/11 06:16:08;;;;;;;11.55;9.00;;;;;;;18.56;99.27;100871.31;4960545;28;20047;-84
2021/09/11 06:18:35;;;;;;;12.85;10.98;;;;;;;18.59;98.88;100872.97;4968528;28;20165;-83
2021/09/11 06:21:02;;;;;;;15.13;10.98;;;;;;;18.59;98.85;100868.56;4958994;28;20063;-83
2021/09/11 06:23:28;;;;;;;12.13;10.80;;;;;;;18.62;98.89;100878.19;4954754;28;20053;-82
2021/09/11 06:25:55;;;;;;;13.48;10.38;;;;;;;18.61;98.55;100876.44;4960267;28;20050;-83
2021/09/11 06:28:24;;;;;;;16.33;11.88;;;;;;;18.58;98.52;100876.56;4959358;28;20043;-83
2021/09/11 06:30:51;;;;;;;13.38;11.20;;;;;;;18.58;98.14;100879.22;4958132;28;20042;-83
2021/09/11 06:33:18;;;;;;;14.98;11.52;;;;;;;18.60;98.60;100875.56;4975754;28;20035;-84
2021/09/11 06:35:44;;;;;;;14.93;11.80;;;;;;;18.68;98.00;100881.44;4958947;28;20477;-83
2021/09/11 06:38:13;;;;;;;15.38;12.55;;;;;;;18.81;97.63;100879.19;4959754;28;20434;-84
2021/09/11 06:40:40;;;;;;;15.93;13.45;;;;;;;18.96;97.21;100875.06;4974573;28;20122;-84
2021/09/11 06:43:08;;;;;;;14.23;11.93;;;;;;;19.11;96.58;100884.19;4958804;28;20043;-84
2021/09/11 06:45:34;;;;;;;15.05;12.60;;;;;;;19.17;95.49;100877.78;4958209;28;20481;-84
2021/09/11 06:48:01;;;;;;;15.40;12.50;;;;;;;19.16;95.53;100884.88;4942780;28;20050;-84
2021/09/11 06:50:28;;;;;;;25.65;14.13;;;;;;;19.08;94.96;100892.28;4958408;28;20054;-84
2021/09/11 06:52:54;;;;;;;18.75;13.82;;;;;;;19.06;95.45;100891.47;4958760;28;20070;-84
2021/09/11 06:55:21;;;;;;;18.15;14.50;;;;;;;19.12;95.27;100898.31;4958892;28;20129;-84
2021/09/11 06:57:48;;;;;;;19.55;14.90;;;;;;;19.20;94.42;100884.75;4959877;28;20047;-83
2021/09/11 07:00:15;;;;;;;19.67;14.60;;;;;;;19.27;94.14;100894.19;4959564;28;20500;-83
2021/09/11 07:02:42;;;;;;;19.75;15.38;;;;;;;19.29;93.57;100890.50;4963074;28;20097;-83
2021/09/11 07:05:09;;;;;;;18.67;14.02;;;;;;;19.34;93.07;100885.88;4945391;28;20473;-83
2021/09/11 07:07:35;;;;;;;18.75;14.70;;;;;;;19.36;93.08;100891.16;4979243;28;20051;-83
2021/09/11 07:10:06;;;;;;;23.23;15.57;;;;;;;19.39;93.11;100898.13;4978512;28;20125;-84
2021/09/11 07:12:33;;;;;;;20.08;15.00;;;;;;;19.44;93.05;100898.78;4977424;28;20502;-82
2021/09/11 07:15:01;;;;;;;21.42;15.45;;;;;;;19.49;92.32;100892.34;4962397;28;20125;-83
2021/09/11 07:17:29;;;;;;;18.23;13.23;;;;;;;19.55;91.92;100900.97;4961214;28;20445;-83
2021/09/11 07:19:55;;;;;;;18.67;14.45;;;;;;;19.59;91.76;100905.22;4978306;28;20453;-83
2021/09/11 07:22:22;;;;;;;15.52;13.40;;;;;;;19.59;91.95;100902.56;4945705;28;20129;-83
2021/09/11 07:24:49;;;;;;;14.88;13.25;;;;;;;19.60;92.02;100909.63;4945309;28;20437;-83
2021/09/11 07:27:17;;;;;;;15.57;12.25;;;;;;;19.70;91.76;100907.41;4961735;28;20047;-82
2021/09/11 07:29:43;;;;;;;17.33;14.43;;;;;;;19.86;91.31;100900.53;4961065;28;20064;-83
2021/09/11 07:32:10;;;;;;;16.70;13.68;;;;;;;20.03;90.62;100896.28;4945488;28;20370;-83
2021/09/11 07:34:37;;;;;;;14.52;12.45;;;;;;;20.31;89.53;100901.19;4977316;28;20043;-83
2021/09/11 07:37:04;;;;;;;16.95;12.80;;;;;;;20.57;87.55;100910.66;4978078;28;20058;-83
2021/09/11 07:39:32;;;;;;;15.65;12.85;;;;;;;20.86;85.92;100911.09;4978581;28;20121;-84
2021/09/11 07:41:58;;;;;;;15.52;13.10;;;;;;;21.31;85.17;100914.22;4962666;28;20051;-84
2021/09/11 07:44:25;;;;;;;16.50;12.55;;;;;;;22.01;79.93;100916.91;4963198;28;20042;-83
2021/09/11 07:46:52;;;;;;;14.20;11.68;;;;;;;22.31;79.28;100916.22;4978922;28;20046;-83
2021/09/11 07:49:18;;;;;;;14.77;11.68;;;;;;;22.47;76.87;100916.28;4944893;28;20152;-83
2021/09/11 07:51:45;;;;;;;13.43;11.65;;;;;;;22.56;75.83;100912.25;4961791;28;20158;-84
2021/09/11 07:54:11;;;;;;;16.85;11.95;;;;;;;22.49;76.21;100916.19;4962263;28;20054;-90
2021/09/11 07:56:38;;;;;;;16.85;11.85;;;;;;;22.22;77.75;100927.38;4963742;28;20057;-84
2021/09/11 07:59:04;;;;;;;13.48;11.90;;;;;;;22.01;77.30;100929.41;4945546;28;20118;-84
2021/09/11 08:01:31;;;;;;;18.15;11.90;;;;;;;21.83;79.00;100928.53;4961523;28;20051;-84
2021/09/11 08:03:58;;;;;;;14.18;12.68;;;;;;;21.78;79.75;100932.31;4946647;28;20505;-83
2021/09/11 08:06:24;;;;;;;13.27;11.75;;;;;;;21.77;79.83;100933.25;4963755;28;20081;-83
2021/09/11 08:08:51;;;;;;;14.75;11.55;;;;;;;21.57;78.55;100931.59;4965764;28;20466;-83
2021/09/11 08:11:18;;;;;;;13.20;10.98;;;;;;;21.36;80.07;100940.66;4964294;28;20059;-84
2021/09/11 08:13:44;;;;;;;13.73;11.07;;;;;;;21.28;80.58;100941.88;4964287;28;20046;-81
2021/09/11 08:16:13;;;;;;;12.80;10.25;;;;;;;21.31;80.83;100946.19;4948256;28;20085;-82
2021/09/11 08:18:39;;;;;;;11.10;10.02;;;;;;;21.45;79.85;100950.84;4964480;28;20058;-83
2021/09/11 08:21:06;;;;;;;16.45;11.75;;;;;;;21.53;77.99;100953.13;4965476;28;20043;-82
2021/09/11 08:23:33;;;;;;;13.90;11.40;;;;;;;21.44;77.94;100946.44;4982092;28;20047;-81
2021/09/11 08:26:02;;;;;;;12.23;10.93;;;;;;;21.29;78.61;100948.94;4965195;28;20054;-82
2021/09/11 08:28:28;;;;;;;12.43;10.73;;;;;;;21.33;78.83;100954.97;4972049;28;20054;-81
2021/09/11 08:30:55;;;;;;;11.50;10.30;;;;;;;21.32;78.78;100951.44;4959129;28;20061;-81
2021/09/11 08:33:21;;;;;;;12.20;11.00;;;;;;;21.44;78.15;100951.75;4974554;28;20059;-81
2021/09/11 08:35:48;;;;;;;12.40;11.13;;;;;;;21.45;77.59;100957.00;4976203;28;20037;-80
2021/09/11 08:38:15;;;;;;;11.27;10.23;;;;;;;21.93;75.95;100956.44;4961356;28;20138;-82
2021/09/11 08:40:42;;;;;;;12.02;10.23;;;;;;;22.68;72.05;100964.06;4993290;28;20039;-81
2021/09/11 08:43:28;;;;;;;9.98;9.02;;;;;;;23.01;70.42;100961.34;4958122;28;20090;-84
2021/09/11 08:46:13;;;;;;;11.10;9.93;;;;;;;23.55;68.21;100968.09;4978857;28;20066;-80
2021/09/11 08:48:43;;;;;;;9.55;8.65;;;;;;;23.64;68.18;100967.56;4978517;28;20042;-82
2021/09/11 08:51:11;;;;;;;9.80;8.85;;;;;;;23.56;67.54;100960.00;4978651;28;20059;-83
2021/09/11 08:53:38;;;;;;;9.70;8.77;;;;;;;23.15;69.09;100968.56;4977865;28;20049;-84
2021/09/11 08:56:05;;;;;;;9.60;8.60;;;;;;;22.95;69.27;100977.69;4976921;28;20057;-83
2021/09/11 09:04:11;;;;;;;9.43;8.32;;;;;;;22.42;69.83;100977.88;4962818;23;20066;-84
2021/09/11 09:06:44;;;;;;;9.45;8.55;;;;;;;22.73;67.81;100976.19;4937081;28;20043;-84
2021/09/11 09:09:15;;;;;;;8.73;7.75;;;;;;;23.65;66.42;100976.41;4951300;28;20469;-85
2021/09/11 09:11:46;;;;;;;8.20;7.35;;;;;;;25.03;61.56;100974.25;4951283;28;20046;-86
2021/09/11 09:14:21;;;;;;;9.18;8.35;;;;;;;26.20;57.43;100974.50;4948686;28;20466;-87
2021/09/11 09:16:54;;;;;;;7.70;7.07;;;;;;;26.87;55.05;100973.38;4938246;28;21854;-86
2021/09/11 09:19:29;;;;;;;8.50;7.68;;;;;;;26.77;54.49;100969.63;4928656;28;20050;-85
2021/09/11 09:22:01;;;;;;;8.00;7.03;;;;;;;26.57;55.44;100973.75;4949325;28;20258;-85
2021/09/11 09:24:38;;;;;;;8.45;7.55;;;;;;;26.90;52.63;100967.75;4934419;28;20110;-86
2021/09/11 09:27:10;;;;;;;7.68;7.00;;;;;;;27.95;50.68;100979.72;4968159;28;20074;-86
2021/09/11 09:29:51;;;;;;;7.55;6.97;;;;;;;27.96;52.13;100968.84;4932053;28;20494;-85
2021/09/11 09:32:18;;;;;;;9.38;8.48;;;;;;;27.93;51.16;100971.78;4945635;28;20058;-85
2021/09/11 09:34:47;;;;;;;7.90;7.15;;;;;;;27.94;50.07;100964.56;4968280;28;20069;-87
2021/09/11 09:37:18;;;;;;;9.32;8.38;;;;;;;27.32;50.86;100971.91;4971648;28;20054;-86
2021/09/11 09:39:51;;;;;;;9.50;8.50;;;;;;;26.64;51.70;100971.47;4926956;28;20058;-87
2021/09/11 09:42:39;;;;;;;13.10;8.75;;;;;;;25.98;54.20;100971.56;4956991;28;20065;-86
2021/09/11 09:45:08;;;;;;;9.77;8.05;;;;;;;25.42;55.56;100975.28;4971038;28;20047;-86
2021/09/11 09:47:37;;;;;;;9.25;8.35;;;;;;;25.13;56.53;100974.53;4943627;28;20051;-86
2021/09/11 09:50:15;;;;;;;9.90;8.90;;;;;;;24.44;57.08;100970.78;4941964;28;20055;-87
2021/09/11 09:52:42;;;;;;;9.68;8.77;;;;;;;23.93;58.98;100967.66;4942153;29;20053;-87
2021/09/11 09:55:11;;;;;;;10.35;9.13;;;;;;;23.52;59.41;100968.25;4939939;28;20051;-84
2021/09/11 09:57:41;;;;;;;11.93;10.55;;;;;;;23.57;59.28;100963.50;4929130;28;20058;-87
2021/09/11 10:05:38;;;;;;;9.93;8.93;;;;;;;24.42;57.66;100971.81;4943338;28;20070;-86
2021/09/11 10:08:19;;;;;;;10.30;9.15;;;;;;;24.60;56.97;100964.44;4961686;28;20078;-86
2021/09/11 10:11:13;;;;;;;9.68;7.68;;;;;;;24.47;56.94;100964.38;4964231;28;20101;-86
2021/09/11 10:13:57;;;;;;;9.07;8.18;;;;;;;24.34;57.82;100964.28;4939744;28;20046;-85
2021/09/11 10:16:35;;;;;;;9.50;8.50;;;;;;;24.88;56.46;100962.72;4940478;28;20038;-87
2021/09/11 10:19:24;;;;;;;7.72;6.93;;;;;;;26.12;51.95;100959.91;4941893;28;20110;-86
2021/09/11 10:22:16;;;;;;;8.00;7.20;;;;;;;26.56;51.04;100962.13;4937074;28;20454;-87
2021/09/11 10:25:06;;;;;;;7.60;6.90;;;;;;;26.31;51.66;100967.50;4966443;28;20047;-85
2021/09/11 10:27:40;;;;;;;6.80;6.18;;;;;;;25.87;52.42;100966.94;4943329;28;20737;-84
2021/09/11 10:30:11;;;;;;;6.82;6.10;;;;;;;25.48;53.72;100961.50;4935352;28;20054;-85
2021/09/11 10:32:49;;;;;;;8.00;7.15;;;;;;;25.15;52.63;100960.06;4929035;28;20096;-84
2021/09/11 10:35:24;;;;;;;6.85;6.25;;;;;;;25.19;53.10;100961.59;4946886;28;20083;-85
2021/09/11 10:38:00;;;;;;;6.18;5.57;;;;;;;25.32;52.30;100963.44;4950478;28;20039;-85
2021/09/11 10:40:41;;;;;;;6.88;6.03;;;;;;;26.09;49.92;100972.56;4971629;28;20458;-86
2021/09/11 10:43:08;;;;;;;8.07;6.82;;;;;;;26.47;49.21;100975.38;4955700;28;20046;-86
2021/09/11 10:46:02;;;;;;;8.38;7.47;;;;;;;26.06;48.94;100959.38;4949473;28;20173;-86
2021/09/11 10:48:43;;;;;;;8.10;7.30;;;;;;;24.97;52.10;100974.66;4954900;28;20487;-86
2021/09/11 10:51:25;;;;;;;7.40;6.80;;;;;;;24.18;54.64;100983.06;4946566;28;20043;-85
2021/09/11 10:54:07;;;;;;;8.85;6.88;;;;;;;23.79;55.79;100974.66;4965547;28;20066;-87
2021/09/11 10:56:45;;;;;;;7.10;6.50;;;;;;;23.67;55.55;100971.88;4963825;28;20034;-84
2021/09/11 10:59:15;;;;;;;6.43;5.82;;;;;;;23.98;55.10;100967.41;4949289;28;20105;-84
2021/09/11 11:02:16;;;;;;;6.50;5.82;;;;;;;24.38;53.98;100965.81;4963480;28;20722;-85
2021/09/11 11:05:17;;;;;;;7.38;6.47;;;;;;;24.39;53.63;100961.28;4960589;28;20051;-84
2021/09/11 11:07:51;;;;;;;7.57;6.15;;;;;;;24.14;54.35;100961.97;4945117;28;20501;-83
2021/09/11 11:10:19;;;;;;;6.97;6.38;;;;;;;23.92;54.65;100963.25;4946176;28;20054;-84
2021/09/11 11:12:50;;;;;;;9.75;6.80;;;;;;;23.75;55.39;100954.44;4961974;28;20093;-84
2021/09/11 11:15:29;;;;;;;8.38;5.97;;;;;;;23.69;55.86;100952.13;4942668;28;20055;-85
2021/09/11 11:17:57;;;;;;;6.13;5.63;;;;;;;23.84;55.44;100958.34;4926903;28;20047;-84
2021/09/11 11:20:29;;;;;;;6.72;6.10;;;;;;;24.28;54.32;100948.59;4957815;28;20130;-86
2021/09/11 11:23:02;;;;;;;6.35;5.85;;;;;;;24.70;53.35;100943.34;4939653;28;20051;-84
2021/09/11 11:25:40;;;;;;;5.78;5.38;;;;;;;25.10;52.49;100946.97;4948197;28;20078;-84
2021/09/11 11:28:14;;;;;;;6.32;5.82;;;;;;;25.97;50.22;100948.38;4945728;28;20141;-85
2021/09/11 11:30:43;;;;;;;5.60;5.13;;;;;;;27.09;45.80;100950.28;4933845;28;20516;-85
2021/09/11 11:33:12;;;;;;;5.88;5.30;;;;;;;27.39;45.72;100940.94;4958695;28;20057;-85
2021/09/11 11:35:41;;;;;;;5.40;5.00;;;;;;;27.96;45.48;100949.16;4959287;28;20042;-86
2021/09/11 11:38:09;;;;;;;5.53;5.20;;;;;;;28.50;44.14;100937.72;4946079;28;20553;-86